Time;durP1;ratioP1;P1;durP2;ratioP2;P2;SDS_P1;SDS_P2;PMS_P1;PMS_P2;Temp;Humidity;BMP_temperature;BMP_pressure;BME280_temperature;BME280_humidity;BME280_pressure;Samples;Min_cycle;Max_cycle;Signal;HPM_P1;HPM_P2
2022/10/31 00:01:21;;;;;;;10.70;4.90;;;11.90;83.60;;;;;;5026931;28;20180;-60
2022/10/31 00:03:47;;;;;;;14.83;6.20;;;12.00;83.60;;;;;;5030926;28;20206;-60
2022/10/31 00:06:13;;;;;;;11.90;5.00;;;11.90;83.60;;;;;;4999230;28;20189;-60
2022/10/31 00:08:39;;;;;;;9.60;5.73;;;11.90;83.50;;;;;;5030684;28;20638;-60
2022/10/31 00:11:08;;;;;;;12.90;5.67;;;11.90;83.50;;;;;;5031905;28;20183;-60
2022/10/31 00:13:34;;;;;;;14.40;5.87;;;11.80;83.40;;;;;;5049244;28;20190;-60
2022/10/31 00:16:00;;;;;;;11.33;5.80;;;11.80;83.50;;;;;;5030980;28;20183;-60
2022/10/31 00:18:25;;;;;;;10.73;4.77;;;11.80;83.60;;;;;;5025917;28;20174;-60
2022/10/31 00:21:02;;;;;;;10.60;5.67;;;11.80;83.80;;;;;;5016690;28;20194;-60
2022/10/31 00:23:28;;;;;;;8.73;4.87;;;11.80;83.80;;;;;;5030100;28;20175;-60
2022/10/31 00:25:59;;;;;;;11.63;6.77;;;11.80;83.90;;;;;;5062793;28;20187;-60
2022/10/31 00:28:25;;;;;;;12.23;6.43;;;11.70;84.10;;;;;;5030727;28;20186;-60
2022/10/31 00:30:50;;;;;;;9.53;6.30;;;11.80;84.20;;;;;;5006467;28;20188;-60
2022/10/31 00:33:16;;;;;;;12.73;6.07;;;11.70;84.20;;;;;;5005880;28;20216;-60
2022/10/31 00:35:41;;;;;;;11.60;5.87;;;11.80;84.10;;;;;;5031463;28;20203;-60
2022/10/31 00:38:07;;;;;;;12.03;6.27;;;11.80;84.20;;;;;;5014803;28;20183;-60
2022/10/31 00:40:33;;;;;;;13.10;6.60;;;11.80;84.30;;;;;;5022021;28;20238;-60
2022/10/31 00:42:58;;;;;;;13.13;6.43;;;11.80;84.10;;;;;;5027371;28;20286;-60
2022/10/31 00:45:24;;;;;;;11.50;5.50;;;11.80;84.20;;;;;;5010829;28;20211;-60
2022/10/31 00:47:50;;;;;;;10.13;5.17;;;11.80;84.20;;;;;;5013823;28;20198;-60
2022/10/31 00:50:16;;;;;;;13.30;5.07;;;11.80;84.30;;;;;;5031937;28;20205;-60
2022/10/31 00:52:41;;;;;;;14.63;4.60;;;11.80;84.10;;;;;;5035369;28;20191;-60
2022/10/31 00:55:07;;;;;;;9.13;4.60;;;11.80;84.00;;;;;;5015501;28;20237;-60
2022/10/31 00:57:33;;;;;;;9.33;4.97;;;11.80;84.00;;;;;;5034026;28;20217;-60
2022/10/31 00:59:58;;;;;;;8.77;5.27;;;11.80;84.00;;;;;;5016189;28;20192;-60
2022/10/31 01:02:24;;;;;;;9.10;5.67;;;11.70;83.90;;;;;;5013638;28;20191;-60
2022/10/31 01:04:50;;;;;;;12.57;5.33;;;11.70;83.90;;;;;;5027530;28;20212;-60
2022/10/31 01:07:15;;;;;;;10.80;5.23;;;11.70;83.90;;;;;;5037525;28;20217;-60
2022/10/31 01:09:41;;;;;;;10.03;4.63;;;11.70;84.00;;;;;;5036264;28;20187;-60
2022/10/31 01:12:07;;;;;;;11.87;5.17;;;11.60;84.10;;;;;;5013546;28;20180;-60
2022/10/31 01:14:32;;;;;;;12.90;5.97;;;11.70;83.90;;;;;;5029572;28;20191;-60
2022/10/31 01:16:58;;;;;;;5.47;4.80;;;11.60;83.90;;;;;;4997861;28;20187;-60
2022/10/31 01:19:24;;;;;;;6.03;4.30;;;11.60;84.00;;;;;;5033742;28;20240;-60
2022/10/31 01:21:49;;;;;;;13.40;5.23;;;11.70;84.10;;;;;;5019674;28;20260;-60
2022/10/31 01:24:15;;;;;;;13.13;5.00;;;11.60;84.00;;;;;;5003897;28;20253;-60
2022/10/31 01:26:40;;;;;;;15.07;5.50;;;11.60;84.30;;;;;;5031265;28;20187;-60
2022/10/31 01:29:07;;;;;;;13.57;5.20;;;11.60;84.00;;;;;;5011625;28;20250;-60
2022/10/31 01:31:36;;;;;;;11.97;4.93;;;11.60;83.80;;;;;;5042287;28;20183;-60
2022/10/31 01:34:02;;;;;;;8.23;4.87;;;11.60;84.00;;;;;;5034374;28;20195;-60
2022/10/31 01:36:34;;;;;;;10.27;4.60;;;11.60;84.10;;;;;;5031930;28;20275;-60
2022/10/31 01:39:11;;;;;;;10.10;5.23;;;11.60;84.10;;;;;;5030192;28;20182;-60
2022/10/31 01:41:39;;;;;;;12.50;5.13;;;11.60;83.90;;;;;;5012916;28;20194;-60
2022/10/31 01:44:14;;;;;;;10.20;5.13;;;11.60;83.90;;;;;;5035878;28;20242;-60
2022/10/31 01:46:58;;;;;;;8.73;5.03;;;11.60;83.80;;;;;;5030289;28;20183;-60
2022/10/31 01:49:24;;;;;;;12.87;4.67;;;11.50;83.70;;;;;;5046941;28;20190;-60
2022/10/31 01:52:22;;;;;;;8.10;5.17;;;11.50;84.00;;;;;;5028465;28;20175;-60
2022/10/31 01:55:10;;;;;;;10.70;4.70;;;11.50;83.60;;;;;;5033519;28;20195;-60
2022/10/31 01:57:40;;;;;;;10.70;4.63;;;11.50;83.80;;;;;;5034183;28;20202;-60
2022/10/31 02:00:08;;;;;;;10.17;4.80;;;11.50;83.90;;;;;;5031123;28;20186;-60
2022/10/31 02:02:34;;;;;;;8.90;5.43;;;11.50;84.10;;;;;;5030266;28;20178;-60
2022/10/31 02:05:04;;;;;;;9.83;4.30;;;11.50;84.00;;;;;;5030684;28;20222;-60
2022/10/31 02:07:39;;;;;;;11.87;5.33;;;11.50;84.10;;;;;;5027794;28;20208;-60
2022/10/31 02:10:05;;;;;;;8.97;4.60;;;11.40;84.10;;;;;;5033698;28;20179;-60
2022/10/31 02:12:32;;;;;;;13.37;4.27;;;11.40;84.00;;;;;;5022635;28;20190;-60
2022/10/31 02:14:59;;;;;;;9.60;4.60;;;11.40;84.00;;;;;;5033427;28;20223;-60
2022/10/31 02:17:25;;;;;;;12.07;5.50;;;11.40;83.90;;;;;;5017146;28;20192;-60
2022/10/31 02:20:03;;;;;;;10.37;4.63;;;11.40;84.00;;;;;;5018250;28;20194;-60
2022/10/31 02:22:54;;;;;;;8.07;4.53;;;11.30;84.00;;;;;;5032944;28;20175;-60
2022/10/31 02:25:57;;;;;;;11.90;5.17;;;11.30;84.20;;;;;;5032560;28;20318;-60
2022/10/31 02:28:28;;;;;;;8.37;4.97;;;11.40;84.00;;;;;;5033443;28;20179;-60
2022/10/31 02:31:12;;;;;;;10.30;4.87;;;11.30;84.30;;;;;;5032182;28;20296;-60
2022/10/31 02:33:57;;;;;;;15.73;4.77;;;11.30;84.30;;;;;;5078530;28;20196;-60
2022/10/31 02:36:52;;;;;;;6.97;4.53;;;11.30;84.10;;;;;;5033723;28;20272;-60
2022/10/31 02:39:34;;;;;;;9.70;4.80;;;11.30;84.00;;;;;;5032809;28;20183;-60
2022/10/31 02:42:09;;;;;;;10.80;4.80;;;11.30;84.00;;;;;;5042316;28;20187;-60
2022/10/31 02:45:00;;;;;;;11.93;4.50;;;11.30;83.80;;;;;;5036420;28;20211;-60
2022/10/31 02:47:29;;;;;;;12.17;4.90;;;11.20;84.10;;;;;;5034751;28;20683;-60
2022/10/31 02:49:57;;;;;;;13.23;5.10;;;11.20;84.00;;;;;;5035809;28;20270;-60
2022/10/31 02:52:28;;;;;;;8.27;4.30;;;11.20;83.80;;;;;;5030120;28;20274;-60
2022/10/31 02:54:53;;;;;;;11.60;5.00;;;11.20;83.90;;;;;;5033686;28;20236;-60
2022/10/31 02:57:27;;;;;;;12.53;5.17;;;11.10;83.90;;;;;;5034167;28;20198;-60
2022/10/31 03:00:05;;;;;;;7.53;4.13;;;11.10;84.00;;;;;;5047487;28;20213;-60
2022/10/31 03:02:52;;;;;;;8.03;4.47;;;11.10;84.00;;;;;;5034505;28;20187;-60
2022/10/31 03:05:45;;;;;;;7.27;4.40;;;11.10;84.00;;;;;;5035227;28;20236;-60
2022/10/31 03:08:17;;;;;;;11.13;4.73;;;11.10;84.00;;;;;;5032943;28;20203;-60
2022/10/31 03:10:51;;;;;;;9.23;4.17;;;11.00;84.60;;;;;;5066639;28;20187;-60
2022/10/31 03:13:32;;;;;;;6.23;4.10;;;11.00;84.90;;;;;;5034365;28;20300;-60
2022/10/31 03:16:34;;;;;;;11.13;4.50;;;11.10;84.80;;;;;;5037855;28;20191;-60
2022/10/31 03:19:25;;;;;;;12.80;4.60;;;11.10;84.70;;;;;;5035905;28;21154;-60
2022/10/31 03:21:55;;;;;;;8.77;4.27;;;11.20;84.50;;;;;;5025577;28;20191;-60
2022/10/31 03:24:24;;;;;;;10.67;4.50;;;11.00;84.40;;;;;;5019556;28;20207;-60
2022/10/31 03:26:54;;;;;;;10.57;4.37;;;11.00;84.40;;;;;;5031109;28;20237;-60
2022/10/31 03:29:24;;;;;;;9.73;4.70;;;11.00;84.40;;;;;;5033851;28;20183;-60
2022/10/31 03:31:56;;;;;;;6.97;4.13;;;11.00;84.70;;;;;;5032415;28;20266;-60
2022/10/31 03:34:23;;;;;;;10.30;4.20;;;11.00;84.30;;;;;;5025022;28;20195;-60
2022/10/31 03:36:52;;;;;;;7.83;4.47;;;11.00;84.20;;;;;;5031354;28;20202;-60
2022/10/31 03:39:20;;;;;;;9.43;4.70;;;10.90;84.50;;;;;;5031652;28;20278;-60
2022/10/31 03:41:54;;;;;;;8.20;4.37;;;10.90;84.50;;;;;;5023104;28;20219;-60
2022/10/31 03:44:23;;;;;;;6.77;3.90;;;10.90;84.30;;;;;;5031162;28;20269;-60
2022/10/31 03:46:48;;;;;;;9.43;4.90;;;10.90;84.60;;;;;;5032340;28;20184;-60
2022/10/31 03:49:15;;;;;;;9.80;4.40;;;11.00;85.00;;;;;;5018956;28;20213;-60
2022/10/31 03:52:12;;;;;;;9.37;5.07;;;11.00;85.40;;;;;;5012611;28;20195;-60
2022/10/31 03:54:44;;;;;;;11.13;5.50;;;11.10;85.70;;;;;;5028336;28;20196;-60
2022/10/31 03:57:27;;;;;;;10.90;5.07;;;11.20;85.70;;;;;;5032350;28;20249;-60
2022/10/31 04:00:21;;;;;;;12.43;4.77;;;11.20;85.50;;;;;;5037219;28;20198;-60
2022/10/31 04:03:01;;;;;;;8.40;4.83;;;11.30;85.20;;;;;;5029515;28;20211;-60
2022/10/31 04:05:27;;;;;;;10.23;4.30;;;11.30;85.20;;;;;;5030502;28;20262;-60
2022/10/31 04:07:56;;;;;;;8.93;4.40;;;11.30;85.00;;;;;;5012732;28;20290;-60
2022/10/31 04:10:23;;;;;;;8.87;4.80;;;11.30;84.90;;;;;;5029143;28;20245;-60
2022/10/31 04:12:56;;;;;;;7.70;4.40;;;11.30;84.90;;;;;;5032488;28;20710;-60
2022/10/31 04:15:23;;;;;;;9.60;4.53;;;11.30;84.90;;;;;;5030927;28;20199;-60
2022/10/31 04:17:52;;;;;;;10.20;4.87;;;11.30;84.70;;;;;;5032731;28;20279;-60
2022/10/31 04:20:18;;;;;;;9.40;4.37;;;11.30;84.60;;;;;;5037267;28;20266;-60
2022/10/31 04:22:44;;;;;;;10.37;5.13;;;11.30;84.40;;;;;;5055409;28;20183;-60
2022/10/31 04:25:10;;;;;;;14.50;4.67;;;11.30;84.40;;;;;;5047953;28;20290;-60
2022/10/31 04:27:35;;;;;;;8.40;4.23;;;11.10;84.40;;;;;;5019492;28;20277;-60
2022/10/31 04:30:01;;;;;;;7.30;4.53;;;11.00;84.60;;;;;;5029828;28;20276;-60
2022/10/31 04:32:27;;;;;;;10.97;5.17;;;11.10;84.50;;;;;;5030428;28;20194;-60
2022/10/31 04:34:52;;;;;;;7.83;4.70;;;11.00;84.30;;;;;;5030853;28;20282;-60
2022/10/31 04:37:18;;;;;;;10.33;5.23;;;11.00;84.50;;;;;;5031354;28;20300;-60
2022/10/31 04:39:44;;;;;;;13.43;4.50;;;11.00;84.40;;;;;;5021031;28;20276;-60
2022/10/31 04:42:09;;;;;;;8.43;4.73;;;11.00;84.40;;;;;;5025231;28;20257;-60
2022/10/31 04:44:35;;;;;;;10.77;4.67;;;11.00;84.10;;;;;;5018476;28;20240;-60
2022/10/31 04:47:01;;;;;;;9.87;4.50;;;10.90;84.30;;;;;;5037112;28;20224;-60
2022/10/31 04:49:26;;;;;;;8.67;4.73;;;10.90;84.40;;;;;;5019820;28;20210;-60
2022/10/31 04:51:52;;;;;;;8.70;4.37;;;10.90;84.20;;;;;;5037161;28;20195;-60
2022/10/31 04:54:17;;;;;;;11.37;4.97;;;10.90;84.10;;;;;;5019458;28;20199;-60
2022/10/31 04:56:43;;;;;;;9.00;4.80;;;10.80;84.30;;;;;;5012033;28;20326;-60
2022/10/31 04:59:09;;;;;;;6.97;3.97;;;10.80;84.30;;;;;;5019195;28;20198;-60
2022/10/31 05:01:34;;;;;;;9.60;5.03;;;10.80;84.30;;;;;;5031357;28;20195;-60
2022/10/31 05:04:00;;;;;;;14.40;5.33;;;10.80;84.20;;;;;;5028300;28;20555;-60
2022/10/31 05:06:26;;;;;;;12.37;5.37;;;10.80;84.20;;;;;;5000738;28;20214;-60
2022/10/31 05:08:52;;;;;;;13.60;5.33;;;10.80;84.80;;;;;;5011783;28;20206;-60
2022/10/31 05:11:17;;;;;;;12.70;4.63;;;10.70;84.80;;;;;;5052589;28;20264;-60
2022/10/31 05:13:43;;;;;;;9.37;4.57;;;10.70;84.70;;;;;;5029648;28;20222;-60
2022/10/31 05:16:09;;;;;;;7.70;3.83;;;10.80;85.00;;;;;;5041516;28;20191;-60
2022/10/31 05:18:34;;;;;;;5.83;4.60;;;10.70;84.60;;;;;;5019984;28;20183;-60
2022/10/31 05:21:00;;;;;;;13.93;4.83;;;10.70;84.60;;;;;;5013710;28;20620;-60
2022/10/31 05:23:25;;;;;;;11.30;4.50;;;10.70;84.50;;;;;;5010582;28;20184;-60
2022/10/31 05:25:51;;;;;;;4.97;4.03;;;10.80;84.50;;;;;;5013643;28;20215;-60
2022/10/31 05:28:17;;;;;;;8.97;4.47;;;10.80;84.30;;;;;;4996049;28;20215;-60
2022/10/31 05:30:42;;;;;;;10.23;5.00;;;10.70;84.10;;;;;;4993590;28;20193;-60
2022/10/31 05:33:08;;;;;;;8.47;4.53;;;10.70;84.20;;;;;;5011460;28;20188;-60
2022/10/31 05:35:34;;;;;;;9.60;4.43;;;10.80;84.30;;;;;;5013730;28;20187;-60
2022/10/31 05:38:00;;;;;;;15.10;5.00;;;10.70;84.00;;;;;;4996729;28;20219;-60
2022/10/31 05:40:27;;;;;;;9.13;5.00;;;10.60;84.30;;;;;;5032101;28;20206;-60
2022/10/31 05:42:54;;;;;;;10.30;4.63;;;10.50;84.60;;;;;;5013464;28;20206;-60
2022/10/31 05:45:21;;;;;;;7.57;4.30;;;10.50;85.20;;;;;;5026599;28;20211;-60
2022/10/31 05:47:55;;;;;;;6.70;4.33;;;10.60;85.10;;;;;;5036309;28;20202;-60
2022/10/31 05:50:22;;;;;;;15.27;5.07;;;10.70;85.20;;;;;;5039155;28;20183;-60
2022/10/31 05:52:53;;;;;;;10.77;4.43;;;10.60;84.80;;;;;;5028015;28;20216;-60
2022/10/31 05:55:19;;;;;;;9.70;4.93;;;10.70;84.90;;;;;;5018552;28;20262;-60
2022/10/31 05:57:45;;;;;;;9.03;4.80;;;10.80;85.30;;;;;;5033496;28;20203;-60
2022/10/31 06:00:11;;;;;;;14.93;4.90;;;10.80;84.70;;;;;;5034673;28;20229;-60
2022/10/31 06:02:37;;;;;;;10.87;4.33;;;10.70;84.60;;;;;;5036203;28;20199;-60
2022/10/31 06:05:02;;;;;;;9.60;4.90;;;10.70;84.70;;;;;;5042001;28;20284;-60
2022/10/31 06:07:35;;;;;;;9.03;4.80;;;10.70;84.40;;;;;;5032463;28;20237;-60
2022/10/31 06:10:04;;;;;;;9.23;4.93;;;10.70;84.50;;;;;;5034691;28;20175;-60
2022/10/31 06:12:30;;;;;;;9.60;4.70;;;10.70;84.30;;;;;;5026490;28;20209;-60
2022/10/31 06:14:56;;;;;;;10.77;5.20;;;10.70;84.00;;;;;;5016008;28;20219;-60
2022/10/31 06:17:21;;;;;;;9.37;5.03;;;10.70;84.40;;;;;;5015539;28;20188;-60
2022/10/31 06:19:47;;;;;;;9.93;4.70;;;10.70;84.20;;;;;;5034210;28;20257;-60
2022/10/31 06:22:13;;;;;;;8.07;4.53;;;10.80;84.40;;;;;;5014626;28;20222;-60
2022/10/31 06:24:39;;;;;;;8.50;4.87;;;10.80;84.60;;;;;;5049471;28;20253;-60
2022/10/31 06:27:05;;;;;;;9.10;5.13;;;10.80;84.60;;;;;;5034164;28;20193;-60
2022/10/31 06:29:30;;;;;;;11.67;5.20;;;10.80;84.70;;;;;;5031691;28;20188;-60
2022/10/31 06:31:56;;;;;;;9.90;5.00;;;10.80;84.50;;;;;;5036313;28;20216;-60
2022/10/31 06:34:22;;;;;;;10.13;5.47;;;10.90;84.50;;;;;;5013906;28;20196;-60
2022/10/31 06:36:47;;;;;;;11.50;4.60;;;10.90;84.30;;;;;;5026324;28;20191;-60
2022/10/31 06:39:13;;;;;;;15.77;5.03;;;10.90;84.50;;;;;;5042216;28;20217;-60
2022/10/31 06:41:41;;;;;;;9.63;5.60;;;10.80;84.50;;;;;;5016871;28;20203;-60
2022/10/31 06:44:07;;;;;;;9.90;5.27;;;10.90;84.50;;;;;;5014695;28;20670;-60
2022/10/31 06:46:33;;;;;;;14.10;5.13;;;10.90;84.70;;;;;;5034130;28;20341;-60
2022/10/31 06:48:59;;;;;;;9.17;4.70;;;10.90;84.90;;;;;;5017323;28;20250;-60
2022/10/31 06:51:25;;;;;;;6.93;5.03;;;10.90;85.10;;;;;;5015917;28;20237;-60
2022/10/31 06:53:51;;;;;;;8.53;5.23;;;11.00;85.20;;;;;;5021526;28;20195;-60
2022/10/31 06:56:17;;;;;;;10.90;5.27;;;11.00;85.20;;;;;;5050290;28;20302;-60
2022/10/31 06:58:42;;;;;;;11.57;5.80;;;11.00;85.30;;;;;;5028341;28;20193;-60
2022/10/31 07:01:08;;;;;;;9.13;4.30;;;11.10;85.30;;;;;;5030777;28;20261;-60
2022/10/31 07:03:34;;;;;;;8.63;5.13;;;11.10;85.40;;;;;;5047096;28;20190;-60
2022/10/31 07:05:59;;;;;;;11.30;5.97;;;11.20;85.40;;;;;;5032283;28;20210;-60
2022/10/31 07:08:25;;;;;;;11.43;5.40;;;11.20;85.40;;;;;;5016096;28;20195;-60
2022/10/31 07:10:53;;;;;;;11.47;4.97;;;11.20;85.30;;;;;;5032349;28;20179;-60
2022/10/31 07:13:24;;;;;;;8.63;5.67;;;11.30;85.40;;;;;;5030175;28;20320;-60
2022/10/31 07:15:50;;;;;;;10.47;5.20;;;11.30;85.50;;;;;;5021382;28;20203;-60
2022/10/31 07:18:16;;;;;;;10.77;5.03;;;11.40;85.70;;;;;;5032599;28;20202;-60
2022/10/31 07:20:42;;;;;;;9.70;4.73;;;11.40;85.80;;;;;;5016996;28;20632;-60
2022/10/31 07:23:11;;;;;;;7.17;4.83;;;11.50;85.80;;;;;;5034959;28;20290;-60
2022/10/31 07:25:38;;;;;;;9.90;4.87;;;11.60;85.90;;;;;;5033965;28;20226;-60
2022/10/31 07:28:04;;;;;;;6.93;4.67;;;11.60;85.90;;;;;;5034028;28;20184;-60
2022/10/31 07:30:30;;;;;;;8.17;4.67;;;11.60;85.90;;;;;;5035534;28;20184;-60
2022/10/31 07:32:56;;;;;;;9.43;5.27;;;11.70;85.90;;;;;;5049560;28;20193;-60
2022/10/31 07:35:24;;;;;;;10.63;4.93;;;11.80;85.90;;;;;;5022323;28;20265;-60
2022/10/31 07:37:50;;;;;;;16.73;6.03;;;11.80;85.90;;;;;;5035740;28;20186;-60
2022/10/31 07:40:16;;;;;;;8.87;4.80;;;11.80;85.80;;;;;;5013365;28;20195;-60
2022/10/31 07:42:48;;;;;;;8.23;4.77;;;11.90;85.60;;;;;;5026832;28;20206;-60
2022/10/31 07:45:16;;;;;;;10.07;4.70;;;12.00;85.50;;;;;;5032012;28;20214;-60
2022/10/31 07:47:50;;;;;;;8.27;5.07;;;12.00;85.10;;;;;;5033356;28;20651;-61
2022/10/31 07:50:22;;;;;;;7.97;4.57;;;12.00;85.00;;;;;;5032533;28;21550;-61
2022/10/31 07:52:48;;;;;;;7.07;4.23;;;12.10;84.80;;;;;;5031215;28;20262;-61
2022/10/31 07:55:14;;;;;;;8.23;4.93;;;12.10;84.60;;;;;;5019240;28;20241;-61
2022/10/31 07:57:40;;;;;;;7.50;4.47;;;12.20;84.50;;;;;;5016125;28;20191;-61
2022/10/31 08:00:10;;;;;;;7.10;5.47;;;12.30;84.00;;;;;;5033106;28;20190;-61
2022/10/31 08:02:36;;;;;;;9.83;5.20;;;12.30;83.30;;;;;;5030679;28;20187;-61
2022/10/31 08:05:01;;;;;;;8.83;5.00;;;12.30;82.90;;;;;;5048825;28;20219;-61
2022/10/31 08:07:28;;;;;;;12.20;5.77;;;12.40;82.60;;;;;;5015280;28;20239;-61
2022/10/31 08:09:54;;;;;;;11.40;4.97;;;12.40;82.30;;;;;;5031014;28;20191;-61
2022/10/31 08:12:20;;;;;;;8.40;4.47;;;12.50;82.30;;;;;;5032473;28;20183;-61
2022/10/31 08:14:46;;;;;;;7.27;4.37;;;12.60;82.20;;;;;;5033816;28;20196;-61
2022/10/31 08:17:12;;;;;;;8.40;4.63;;;12.60;81.80;;;;;;5049332;28;20259;-61
2022/10/31 08:19:37;;;;;;;8.37;5.17;;;12.70;81.70;;;;;;5030551;28;20211;-61
2022/10/31 08:22:03;;;;;;;9.07;5.00;;;12.70;81.80;;;;;;5036845;28;20264;-61
2022/10/31 08:24:29;;;;;;;8.43;4.93;;;12.80;81.50;;;;;;5049333;28;20260;-61
2022/10/31 08:26:54;;;;;;;10.13;4.97;;;12.80;81.60;;;;;;5022495;28;20191;-61
2022/10/31 08:29:20;;;;;;;11.27;5.10;;;12.80;80.90;;;;;;5027864;28;20179;-61
2022/10/31 08:31:46;;;;;;;12.50;5.33;;;12.90;80.20;;;;;;5013773;28;20188;-61
2022/10/31 08:34:11;;;;;;;9.80;5.00;;;13.00;80.10;;;;;;5015004;28;20210;-61
2022/10/31 08:36:37;;;;;;;8.13;4.57;;;13.10;80.10;;;;;;5030081;28;20195;-61
2022/10/31 08:39:03;;;;;;;13.07;5.10;;;13.20;80.10;;;;;;5028709;28;20191;-61
2022/10/31 08:41:29;;;;;;;7.63;4.17;;;13.30;80.10;;;;;;5050304;28;20183;-61
2022/10/31 08:43:55;;;;;;;12.13;4.60;;;13.30;80.00;;;;;;5030818;28;20250;-61
2022/10/31 08:46:20;;;;;;;11.00;5.03;;;13.30;79.50;;;;;;5043519;28;20187;-61
2022/10/31 08:48:49;;;;;;;10.40;5.87;;;13.40;79.70;;;;;;5016028;28;20179;-61
2022/10/31 08:51:15;;;;;;;13.10;4.63;;;13.40;79.80;;;;;;5041855;28;20179;-61
2022/10/31 08:53:41;;;;;;;10.90;4.97;;;13.50;79.70;;;;;;5018651;28;20193;-61
2022/10/31 08:56:07;;;;;;;11.90;4.67;;;13.60;79.20;;;;;;5020101;28;20239;-61
2022/10/31 08:58:32;;;;;;;7.33;5.03;;;13.70;77.90;;;;;;5030569;28;20218;-61
2022/10/31 09:01:00;;;;;;;8.87;5.23;;;13.80;78.20;;;;;;5023346;28;20188;-61
2022/10/31 09:03:28;;;;;;;13.10;4.93;;;13.80;78.70;;;;;;5032089;28;20187;-61
2022/10/31 09:05:57;;;;;;;10.07;5.27;;;13.80;78.10;;;;;;5030399;28;20218;-61
2022/10/31 09:08:23;;;;;;;11.67;4.73;;;14.00;76.40;;;;;;5028870;28;20183;-61
2022/10/31 09:10:48;;;;;;;9.87;5.50;;;14.20;76.00;;;;;;5046915;28;20179;-61
2022/10/31 09:13:20;;;;;;;8.20;4.70;;;14.30;75.80;;;;;;5012714;28;20194;-61
2022/10/31 09:15:48;;;;;;;12.83;5.47;;;14.40;75.80;;;;;;5030461;28;20187;-61
2022/10/31 09:18:16;;;;;;;12.43;4.93;;;14.50;75.30;;;;;;5030289;28;20190;-61
2022/10/31 09:20:43;;;;;;;13.43;6.37;;;14.60;74.80;;;;;;5019365;28;20271;-61
2022/10/31 09:23:14;;;;;;;15.00;6.43;;;14.80;74.40;;;;;;5030677;28;20252;-61
2022/10/31 09:25:41;;;;;;;11.27;5.67;;;14.90;74.50;;;;;;5030793;28;20210;-61
2022/10/31 09:28:10;;;;;;;12.30;6.03;;;15.00;74.20;;;;;;5032091;28;20183;-61
2022/10/31 09:30:36;;;;;;;16.30;5.87;;;15.00;74.70;;;;;;5031983;28;20187;-61
2022/10/31 09:33:11;;;;;;;11.53;6.27;;;15.00;74.60;;;;;;5034772;28;20183;-61
2022/10/31 09:35:37;;;;;;;13.43;5.67;;;15.10;74.90;;;;;;5038208;28;20183;-61
2022/10/31 09:38:12;;;;;;;13.10;5.50;;;15.00;75.20;;;;;;5027143;28;20186;-61
2022/10/31 09:40:38;;;;;;;13.90;6.23;;;15.20;75.10;;;;;;5032988;28;20200;-61
2022/10/31 09:43:43;;;;;;;11.50;4.90;;;15.30;73.90;;;;;;5032952;28;20178;-61
2022/10/31 09:46:54;;;;;;;13.50;5.23;;;15.40;73.60;;;;;;5028686;28;20203;-61
2022/10/31 09:49:34;;;;;;;15.60;5.83;;;15.40;73.70;;;;;;5019047;28;20194;-61
2022/10/31 09:52:02;;;;;;;13.90;5.30;;;15.60;73.50;;;;;;5037795;28;20235;-61
2022/10/31 09:54:41;;;;;;;14.93;5.53;;;15.70;72.30;;;;;;5028715;28;20183;-61
2022/10/31 09:57:14;;;;;;;10.93;5.47;;;16.10;70.40;;;;;;5031862;28;20231;-61
2022/10/31 09:59:42;;;;;;;12.40;4.87;;;16.10;69.40;;;;;;5031022;28;20183;-61
2022/10/31 10:02:14;;;;;;;8.00;4.40;;;16.10;70.90;;;;;;5030719;28;20670;-61
2022/10/31 10:05:04;;;;;;;11.80;5.30;;;16.50;68.00;;;;;;5034061;28;20197;-61
2022/10/31 10:07:44;;;;;;;12.83;5.53;;;16.40;69.10;;;;;;5035320;28;20252;-61
2022/10/31 10:10:33;;;;;;;14.33;5.23;;;16.30;69.80;;;;;;5023946;28;20217;-61
2022/10/31 10:13:11;;;;;;;10.53;5.30;;;16.30;69.00;;;;;;5029755;28;20192;-61
2022/10/31 10:15:58;;;;;;;8.77;4.90;;;16.30;70.80;;;;;;5019127;28;20191;-61
2022/10/31 10:18:58;;;;;;;8.87;4.83;;;16.30;70.40;;;;;;5029017;28;20187;-61
2022/10/31 10:21:52;;;;;;;10.67;5.27;;;16.40;69.70;;;;;;5035988;28;20190;-61
2022/10/31 10:24:52;;;;;;;10.97;5.40;;;16.50;69.10;;;;;;5046416;28;20199;-61
2022/10/31 10:27:26;;;;;;;13.70;5.40;;;16.80;69.20;;;;;;5006683;28;20183;-61
2022/10/31 10:29:59;;;;;;;12.63;5.10;;;16.90;68.80;;;;;;5030099;28;20182;-61
2022/10/31 10:32:28;;;;;;;13.40;5.87;;;16.90;68.30;;;;;;5031559;28;20250;-61
2022/10/31 10:35:02;;;;;;;11.63;5.40;;;16.90;67.90;;;;;;5035216;28;20210;-61
2022/10/31 10:37:36;;;;;;;10.30;5.33;;;17.00;68.60;;;;;;5021852;28;20230;-61
2022/10/31 10:40:20;;;;;;;12.00;5.50;;;17.10;68.40;;;;;;5033683;28;20208;-61
2022/10/31 10:43:23;;;;;;;17.37;5.83;;;17.00;70.00;;;;;;5032224;28;20199;-61
2022/10/31 10:49:18;;;;;;;16.67;5.23;;;17.30;69.20;;;;;;5035214;28;20241;-61
2022/10/31 10:51:46;;;;;;;11.13;5.50;;;17.20;69.60;;;;;;5035690;28;20214;-61
2022/10/31 10:54:17;;;;;;;14.03;5.27;;;17.30;70.10;;;;;;5033318;28;20237;-61
2022/10/31 10:57:34;;;;;;;8.97;5.50;;;17.40;69.70;;;;;;5039706;28;20313;-61
2022/10/31 11:00:18;;;;;;;13.33;5.33;;;17.70;70.00;;;;;;5017312;28;20199;-61
2022/10/31 11:02:44;;;;;;;6.87;5.17;;;17.70;69.20;;;;;;5046326;28;20205;-61
2022/10/31 11:05:51;;;;;;;14.77;5.50;;;17.60;69.90;;;;;;5027280;28;20202;-61
2022/10/31 11:08:26;;;;;;;10.80;5.10;;;17.60;69.80;;;;;;4991965;28;20189;-61
2022/10/31 11:11:03;;;;;;;7.40;4.73;;;17.80;71.00;;;;;;5020561;28;20199;-61
2022/10/31 11:13:30;;;;;;;10.87;5.00;;;17.80;70.50;;;;;;5030849;28;20180;-61
2022/10/31 11:16:28;;;;;;;8.60;4.43;;;17.80;69.50;;;;;;5016716;28;20187;-61
2022/10/31 11:19:04;;;;;;;11.37;5.60;;;17.80;69.90;;;;;;5046199;28;20258;-61
2022/10/31 11:21:33;;;;;;;10.93;5.70;;;17.90;71.50;;;;;;5034472;28;20179;-61
2022/10/31 11:24:23;;;;;;;11.57;5.67;;;18.10;68.80;;;;;;5028104;28;20184;-61
2022/10/31 11:26:50;;;;;;;11.70;4.43;;;18.10;69.20;;;;;;5020051;28;20196;-61
2022/10/31 11:29:22;;;;;;;8.63;4.90;;;18.30;69.00;;;;;;5025261;28;20185;-61
2022/10/31 11:31:51;;;;;;;13.43;5.60;;;18.40;68.90;;;;;;5028201;28;20206;-61
2022/10/31 11:34:41;;;;;;;13.80;5.70;;;18.70;67.80;;;;;;5033607;28;20191;-61
2022/10/31 11:37:18;;;;;;;8.50;5.20;;;18.80;67.60;;;;;;5032827;28;20209;-61
2022/10/31 11:39:52;;;;;;;8.77;4.93;;;19.00;67.00;;;;;;5031403;28;20191;-61
2022/10/31 11:42:21;;;;;;;15.70;6.17;;;19.00;65.50;;;;;;5032106;28;20183;-61
2022/10/31 11:44:47;;;;;;;9.77;4.70;;;19.30;66.00;;;;;;5030920;28;20213;-61
2022/10/31 11:47:16;;;;;;;15.07;5.93;;;19.60;66.40;;;;;;5032122;28;20184;-61
2022/10/31 11:49:49;;;;;;;11.53;4.63;;;19.50;66.30;;;;;;5033175;28;20183;-61
2022/10/31 11:52:16;;;;;;;13.90;5.47;;;19.60;64.50;;;;;;5033256;28;20205;-61
2022/10/31 11:54:47;;;;;;;11.87;5.13;;;19.70;64.20;;;;;;5028179;28;20187;-61
2022/10/31 11:57:30;;;;;;;9.23;4.80;;;19.80;65.10;;;;;;5049024;28;20234;-61
2022/10/31 11:59:59;;;;;;;11.13;5.73;;;19.90;64.60;;;;;;5030841;28;20187;-61
2022/10/31 12:02:25;;;;;;;9.17;4.93;;;20.00;63.60;;;;;;5047784;28;20194;-61
2022/10/31 12:05:01;;;;;;;9.23;5.10;;;19.90;65.30;;;;;;5023223;28;20291;-61
2022/10/31 12:07:27;;;;;;;10.40;5.00;;;19.90;65.70;;;;;;5035207;28;20188;-61
2022/10/31 12:09:52;;;;;;;10.97;4.70;;;20.10;64.80;;;;;;5038638;28;20271;-61
2022/10/31 12:12:56;;;;;;;10.37;5.13;;;20.20;65.10;;;;;;5034082;28;20203;-61
2022/10/31 12:15:33;;;;;;;8.90;4.47;;;20.30;62.90;;;;;;5024513;28;20190;-61
2022/10/31 12:18:38;;;;;;;11.37;5.33;;;20.50;62.10;;;;;;5046000;28;20210;-61
2022/10/31 12:21:20;;;;;;;11.17;5.23;;;20.40;62.30;;;;;;5036955;28;20217;-61
2022/10/31 12:23:51;;;;;;;9.37;5.03;;;20.60;60.80;;;;;;5036766;28;20195;-61
2022/10/31 12:26:48;;;;;;;11.00;4.97;;;20.70;62.40;;;;;;5032394;28;20287;-61
2022/10/31 12:29:35;;;;;;;12.53;4.83;;;20.80;62.40;;;;;;5031784;28;20183;-61
2022/10/31 12:32:22;;;;;;;7.23;4.77;;;20.80;62.70;;;;;;5062478;28;20313;-61
2022/10/31 12:35:09;;;;;;;9.33;4.97;;;20.90;61.90;;;;;;5033266;28;20190;-61
2022/10/31 12:37:48;;;;;;;10.30;5.13;;;21.00;62.30;;;;;;5043091;28;20267;-61
2022/10/31 12:40:39;;;;;;;10.83;4.60;;;21.10;61.20;;;;;;5036632;28;20185;-61
2022/10/31 12:43:38;;;;;;;6.80;4.47;;;21.10;60.90;;;;;;5038691;28;20195;-61
2022/10/31 12:46:12;;;;;;;9.20;5.03;;;21.20;61.90;;;;;;5042516;28;20238;-61
2022/10/31 12:48:44;;;;;;;9.43;4.40;;;21.20;60.70;;;;;;5030636;28;20193;-61
2022/10/31 12:51:10;;;;;;;7.03;4.40;;;21.20;60.30;;;;;;5041464;28;20205;-61
2022/10/31 12:54:03;;;;;;;7.53;5.33;;;21.30;61.70;;;;;;5032383;28;20184;-61
2022/10/31 12:57:04;;;;;;;8.43;4.50;;;21.30;60.90;;;;;;5011590;28;20296;-61
2022/10/31 12:59:36;;;;;;;7.80;4.43;;;21.30;60.60;;;;;;5016991;28;20195;-61
2022/10/31 13:02:19;;;;;;;6.93;4.10;;;21.50;59.90;;;;;;5033108;28;20198;-61
2022/10/31 13:05:05;;;;;;;8.07;4.40;;;21.50;60.30;;;;;;5031184;28;20261;-61
2022/10/31 13:07:39;;;;;;;10.10;4.50;;;21.60;59.40;;;;;;5030720;28;20203;-61